createdAt,value
2018-05-15T00:01:22.129Z,4.40
2018-05-15T00:03:48.450Z,4.60
2018-05-15T00:06:14.864Z,5.30
2018-05-15T00:08:41.209Z,4.80
2018-05-15T00:11:07.610Z,4.50
2018-05-15T00:13:33.925Z,5.37
2018-05-15T00:16:00.262Z,5.03
2018-05-15T00:18:26.572Z,4.80
2018-05-15T00:20:52.900Z,4.73
2018-05-15T00:23:19.276Z,5.40
2018-05-15T00:25:45.667Z,5.10
2018-05-15T00:28:11.993Z,5.77
2018-05-15T00:30:45.376Z,4.53
2018-05-15T00:33:11.863Z,4.57
2018-05-15T00:35:38.192Z,5.00
2018-05-15T00:38:04.541Z,4.80
2018-05-15T00:51:12.296Z,4.60
2018-05-15T00:53:38.707Z,5.27
2018-05-15T00:56:05.102Z,4.70
2018-05-15T00:58:31.501Z,4.10
2018-05-15T01:03:40.677Z,3.97
2018-05-15T01:06:07.674Z,3.73
2018-05-15T01:08:34.045Z,4.27
2018-05-15T01:11:00.369Z,3.80
2018-05-15T01:13:26.704Z,3.90
2018-05-15T01:15:53.049Z,4.20
2018-05-15T01:18:19.458Z,4.07
2018-05-15T01:20:45.783Z,4.20
2018-05-15T01:23:20.109Z,3.97
2018-05-15T01:25:46.476Z,3.90
2018-05-15T01:28:13.808Z,3.50
2018-05-15T01:30:40.137Z,4.13
2018-05-15T01:33:06.565Z,3.70
2018-05-15T01:35:33.128Z,3.67
2018-05-15T01:37:59.703Z,3.80
2018-05-15T01:40:26.192Z,3.20
2018-05-15T01:42:52.527Z,3.87
2018-05-15T01:45:18.886Z,3.50
2018-05-15T01:47:45.237Z,3.57
2018-05-15T01:50:11.697Z,3.80
2018-05-15T01:52:38.244Z,3.53
2018-05-15T01:55:04.638Z,3.60
2018-05-15T01:57:30.997Z,3.40
2018-05-15T01:59:57.357Z,2.83
2018-05-15T02:02:23.869Z,3.40
2018-05-15T02:04:50.299Z,3.73
2018-05-15T02:07:16.664Z,3.57
2018-05-15T02:09:43.095Z,3.43
2018-05-15T02:12:09.479Z,3.50
2018-05-15T02:14:36.056Z,3.40
2018-05-15T02:17:02.802Z,3.30
2018-05-15T02:19:29.199Z,3.13
2018-05-15T02:21:55.557Z,3.13
2018-05-15T02:24:21.930Z,3.00
2018-05-15T02:26:48.262Z,2.90
2018-05-15T02:29:14.609Z,3.20
2018-05-15T02:31:40.997Z,2.70
2018-05-15T02:34:07.625Z,3.40
2018-05-15T02:36:33.958Z,3.30
2018-05-15T02:39:00.365Z,3.13
2018-05-15T02:41:26.715Z,2.83
2018-05-15T02:43:53.069Z,3.60
2018-05-15T02:46:19.624Z,3.13
2018-05-15T02:48:46.046Z,3.03
2018-05-15T02:51:12.382Z,3.20
2018-05-15T02:53:38.769Z,3.50
2018-05-15T02:56:05.101Z,3.00
2018-05-15T02:58:31.689Z,2.83
2018-05-15T03:00:58.071Z,3.20
2018-05-15T03:03:24.606Z,3.20
2018-05-15T03:05:51.020Z,3.50
2018-05-15T03:10:50.012Z,3.40
2018-05-15T03:13:16.383Z,3.87
2018-05-15T03:15:43.157Z,4.23
2018-05-15T03:18:09.538Z,4.00
2018-05-15T03:20:36.203Z,3.60
2018-05-15T03:23:02.660Z,4.20
2018-05-15T03:25:29.012Z,3.67
2018-05-15T03:27:55.335Z,3.47
2018-05-15T03:30:22.080Z,3.87
2018-05-15T03:32:48.479Z,3.23
2018-05-15T03:35:14.806Z,3.40
2018-05-15T03:37:41.243Z,3.30
2018-05-15T03:40:07.827Z,3.33
2018-05-15T03:42:34.200Z,3.53
2018-05-15T03:45:00.531Z,3.50
2018-05-15T03:47:26.911Z,3.40
2018-05-15T03:49:53.288Z,3.47
2018-05-15T03:52:19.677Z,3.57
2018-05-15T03:54:46.089Z,3.50
2018-05-15T03:57:12.420Z,3.60
2018-05-15T03:59:38.972Z,4.60
2018-05-15T04:02:05.603Z,6.03
2018-05-15T04:04:31.968Z,5.43
2018-05-15T04:06:58.294Z,6.50
2018-05-15T04:09:24.713Z,6.17
2018-05-15T04:11:51.173Z,5.73
2018-05-15T04:14:17.778Z,5.73
2018-05-15T04:16:44.144Z,6.70
2018-05-15T04:19:10.534Z,6.50
2018-05-15T04:21:37.039Z,8.53
2018-05-15T04:24:03.445Z,8.17
2018-05-15T04:26:30.623Z,7.90
2018-05-15T04:28:57.132Z,8.37
2018-05-15T04:31:23.522Z,9.17
2018-05-15T04:33:49.868Z,9.50
2018-05-15T04:36:16.245Z,7.97
2018-05-15T04:38:42.739Z,9.40
2018-05-15T04:41:09.190Z,8.93
2018-05-15T04:43:35.659Z,7.07
2018-05-15T04:46:02.040Z,7.13
2018-05-15T04:48:28.500Z,6.27
2018-05-15T04:50:54.951Z,6.03
2018-05-15T04:53:21.318Z,6.10
2018-05-15T04:55:47.729Z,6.37
2018-05-15T04:58:14.524Z,6.53
2018-05-15T05:00:41.236Z,6.17
2018-05-15T05:03:08.027Z,6.10
2018-05-15T05:05:34.448Z,5.27
2018-05-15T05:08:00.781Z,5.00
2018-05-15T05:10:27.113Z,5.03
2018-05-15T05:12:53.616Z,5.37
2018-05-15T05:15:20.018Z,4.53
2018-05-15T05:17:47.711Z,4.37
2018-05-15T05:20:14.124Z,4.60
2018-05-15T05:22:40.597Z,4.23
2018-05-15T05:25:07.371Z,5.33
2018-05-15T05:27:33.784Z,4.87
2018-05-15T05:30:00.556Z,4.63
2018-05-15T05:32:27.050Z,5.07
2018-05-15T05:34:53.818Z,4.67
2018-05-15T05:37:20.206Z,4.80
2018-05-15T05:39:46.828Z,4.87
2018-05-15T05:42:13.319Z,4.60
2018-05-15T05:44:39.747Z,4.13
2018-05-15T05:47:06.294Z,4.33
2018-05-15T05:49:32.740Z,4.30
2018-05-15T05:51:59.727Z,4.60
2018-05-15T05:54:26.278Z,4.70
2018-05-15T05:56:52.780Z,4.33
2018-05-15T05:59:19.382Z,4.40
2018-05-15T06:01:45.829Z,4.23
2018-05-15T06:04:12.694Z,4.10
2018-05-15T06:06:39.304Z,4.47
2018-05-15T06:09:05.775Z,4.13
2018-05-15T06:11:33.436Z,5.47
2018-05-15T06:13:59.934Z,4.13
2018-05-15T06:16:26.388Z,4.03
2018-05-15T06:18:53.966Z,5.33
2018-05-15T06:21:20.624Z,4.17
2018-05-15T06:23:47.296Z,4.90
2018-05-15T06:26:13.954Z,5.03
2018-05-15T06:28:41.115Z,4.70
2018-05-15T06:31:08.545Z,5.30
2018-05-15T06:33:35.432Z,4.33
2018-05-15T06:36:02.178Z,4.70
2018-05-15T06:38:29.252Z,4.60
2018-05-15T06:40:56.581Z,4.57
2018-05-15T06:43:24.359Z,5.00
2018-05-15T06:45:51.145Z,4.40
2018-05-15T06:48:20.118Z,3.80
2018-05-15T06:53:26.212Z,4.27
2018-05-15T06:55:53.064Z,4.30
2018-05-15T06:58:20.932Z,4.47
2018-05-15T07:00:47.750Z,5.00
2018-05-15T07:03:14.550Z,4.23
2018-05-15T07:05:41.234Z,4.57
2018-05-15T07:08:08.106Z,4.40
2018-05-15T07:10:37.744Z,4.00
2018-05-15T07:13:04.964Z,4.80
2018-05-15T07:15:32.109Z,5.63
2018-05-15T07:17:58.799Z,5.17
2018-05-15T07:23:04.792Z,4.30
2018-05-15T07:25:31.855Z,5.17
2018-05-15T07:27:58.703Z,6.07
2018-05-15T07:30:35.567Z,6.77
2018-05-15T07:33:02.392Z,6.50
2018-05-15T07:35:29.061Z,5.80
2018-05-15T07:37:55.765Z,4.90
2018-05-15T07:40:22.676Z,5.03
2018-05-15T07:42:49.307Z,6.10
2018-05-15T07:45:16.040Z,4.80
2018-05-15T07:47:42.870Z,6.40
2018-05-15T07:50:11.812Z,5.20
2018-05-15T07:52:39.417Z,4.83
2018-05-15T07:55:06.261Z,4.70
2018-05-15T07:57:33.124Z,4.90
2018-05-15T08:00:00.005Z,5.27
2018-05-15T08:02:26.808Z,5.10
2018-05-15T08:04:55.913Z,6.50
2018-05-15T08:07:23.575Z,5.60
2018-05-15T08:09:50.471Z,4.90
2018-05-15T08:12:17.304Z,5.43
2018-05-15T08:14:44.150Z,5.73
2018-05-15T08:17:10.904Z,5.03
2018-05-15T08:19:38.528Z,5.33
2018-05-15T08:22:05.271Z,5.10
2018-05-15T08:24:31.885Z,5.40
2018-05-15T08:26:58.465Z,5.27
2018-05-15T08:29:25.439Z,5.80
2018-05-15T08:31:52.249Z,5.60
2018-05-15T08:34:18.946Z,5.83
2018-05-15T08:36:45.765Z,5.00
2018-05-15T08:39:12.422Z,5.60
2018-05-15T08:41:39.133Z,5.90
2018-05-15T08:44:05.925Z,4.80
2018-05-15T08:46:32.687Z,5.00
2018-05-15T08:48:59.537Z,5.20
2018-05-15T08:51:27.122Z,5.00
2018-05-15T08:53:56.089Z,7.30
2018-05-15T08:56:22.865Z,5.90
2018-05-15T08:58:49.463Z,5.90
2018-05-15T09:01:16.276Z,5.63
2018-05-15T09:03:43.997Z,5.47
2018-05-15T09:06:10.835Z,5.57
2018-05-15T09:08:37.742Z,5.27
2018-05-15T09:11:04.466Z,5.63
2018-05-15T09:13:31.086Z,5.27
2018-05-15T09:15:57.755Z,5.87
2018-05-15T09:18:24.916Z,6.40
2018-05-15T09:20:51.555Z,6.60
2018-05-15T09:23:18.056Z,5.70
2018-05-15T09:25:44.947Z,6.70
2018-05-15T09:28:13.444Z,7.17
2018-05-15T09:30:39.928Z,5.70
2018-05-15T09:33:06.402Z,6.17
2018-05-15T09:35:32.826Z,6.00
2018-05-15T09:37:59.469Z,6.07
2018-05-15T09:40:25.903Z,6.50
2018-05-15T09:42:52.519Z,5.70
2018-05-15T09:45:18.970Z,6.20
2018-05-15T09:47:45.718Z,6.17
2018-05-15T09:50:15.076Z,6.27
2018-05-15T09:52:41.577Z,7.73
2018-05-15T09:55:08.168Z,7.30
2018-05-15T09:57:35.109Z,6.93
2018-05-15T10:00:01.660Z,7.23
2018-05-15T10:02:28.283Z,8.10
2018-05-15T10:04:55.451Z,7.83
2018-05-15T10:07:22.157Z,7.30
2018-05-15T10:09:48.847Z,6.90
2018-05-15T10:12:15.250Z,6.10
2018-05-15T10:14:41.887Z,5.10
2018-05-15T10:17:08.328Z,5.97
2018-05-15T10:19:34.738Z,6.70
2018-05-15T10:22:01.184Z,6.60
2018-05-15T10:24:27.749Z,5.63
2018-05-15T10:26:54.225Z,6.53
2018-05-15T10:29:20.724Z,5.30
2018-05-15T10:31:47.238Z,5.70
2018-05-15T10:34:14.382Z,5.10
2018-05-15T10:36:40.925Z,5.47
2018-05-15T10:39:07.361Z,5.30
2018-05-15T10:41:33.816Z,5.60
2018-05-15T10:44:00.678Z,5.77
2018-05-15T10:46:27.311Z,5.40
2018-05-15T10:48:53.743Z,5.43
2018-05-15T10:51:20.204Z,5.07
2018-05-15T10:53:47.498Z,5.13
2018-05-15T10:56:14.293Z,5.13
2018-05-15T10:58:40.961Z,5.70
2018-05-15T11:01:07.366Z,5.43
2018-05-15T11:03:34.489Z,6.10
2018-05-15T11:06:01.255Z,5.80
2018-05-15T11:08:28.663Z,5.87
2018-05-15T11:10:55.363Z,4.90
2018-05-15T11:13:22.386Z,4.43
2018-05-15T11:15:51.139Z,4.10
2018-05-15T11:18:17.712Z,4.20
2018-05-15T11:20:44.210Z,4.87
2018-05-15T11:23:10.817Z,4.63
2018-05-15T11:25:37.353Z,4.53
2018-05-15T11:28:04.060Z,3.97
2018-05-15T11:30:30.632Z,3.80
2018-05-15T11:32:57.114Z,4.80
2018-05-15T11:35:23.579Z,4.00
2018-05-15T11:37:52.145Z,4.10
2018-05-15T11:40:18.588Z,3.77
2018-05-15T11:42:45.105Z,4.33
2018-05-15T11:45:11.825Z,4.20
2018-05-15T11:47:38.660Z,4.07
2018-05-15T11:50:05.801Z,3.80
2018-05-15T11:52:32.072Z,3.67
2018-05-15T11:54:57.903Z,4.47
2018-05-15T11:57:24.423Z,3.83
2018-05-15T11:59:51.221Z,3.90
2018-05-15T12:02:17.900Z,4.10
2018-05-15T12:04:44.681Z,3.67
2018-05-15T12:07:11.517Z,3.80
2018-05-15T12:09:39.248Z,3.33
2018-05-15T12:12:06.108Z,3.80
2018-05-15T12:14:32.618Z,4.10
2018-05-15T12:16:59.085Z,3.60
2018-05-15T12:19:25.594Z,3.47
2018-05-15T12:21:52.060Z,3.77
2018-05-15T12:24:18.884Z,3.40
2018-05-15T12:26:45.422Z,3.90
2018-05-15T12:29:11.959Z,3.80
2018-05-15T12:31:38.688Z,3.73
2018-05-15T12:34:05.088Z,3.60
2018-05-15T12:36:31.767Z,3.73
2018-05-15T12:38:58.423Z,3.83
2018-05-15T12:41:25.087Z,3.97
2018-05-15T12:43:51.492Z,4.00
2018-05-15T12:46:17.913Z,3.90
2018-05-15T12:48:44.494Z,3.70
2018-05-15T12:51:10.995Z,3.83
2018-05-15T12:53:38.252Z,4.20
2018-05-15T12:56:04.686Z,4.17
2018-05-15T12:58:31.540Z,4.07
2018-05-15T13:00:58.204Z,4.20
2018-05-15T13:03:24.681Z,3.50
2018-05-15T13:05:51.075Z,3.80
2018-05-15T13:08:17.476Z,4.77
2018-05-15T13:10:43.938Z,4.40
2018-05-15T13:13:10.621Z,3.70
2018-05-15T13:15:37.161Z,3.67
2018-05-15T13:18:03.658Z,3.60
2018-05-15T13:20:30.652Z,3.20
2018-05-15T13:22:57.275Z,3.60
2018-05-15T13:25:25.479Z,3.67
2018-05-15T13:27:51.868Z,4.03
2018-05-15T13:30:18.624Z,3.67
2018-05-15T13:32:45.132Z,3.90
2018-05-15T13:35:11.915Z,4.00
2018-05-15T13:37:39.072Z,3.67
2018-05-15T13:40:05.916Z,4.30
2018-05-15T13:42:32.831Z,3.73
2018-05-15T13:44:59.722Z,4.00
2018-05-15T13:47:26.212Z,3.50
2018-05-15T13:49:52.704Z,3.60
2018-05-15T13:52:19.920Z,3.33
2018-05-15T13:54:46.345Z,3.70
2018-05-15T13:57:12.695Z,3.60
2018-05-15T13:59:39.120Z,3.73
2018-05-15T14:02:05.628Z,4.00
2018-05-15T14:04:32.082Z,3.43
2018-05-15T14:06:58.705Z,3.57
2018-05-15T14:09:25.140Z,4.43
2018-05-15T14:11:51.627Z,3.30
2018-05-15T14:14:18.974Z,3.43
2018-05-15T14:16:45.472Z,3.53
2018-05-15T14:19:11.934Z,3.50
2018-05-15T14:21:38.378Z,3.40
2018-05-15T14:24:04.805Z,3.70
2018-05-15T14:26:31.269Z,3.43
2018-05-15T14:28:57.687Z,3.43
2018-05-15T14:31:24.248Z,3.13
2018-05-15T14:33:50.679Z,4.30
2018-05-15T14:36:17.157Z,3.50
2018-05-15T14:38:43.541Z,3.90
2018-05-15T14:41:09.962Z,3.00
2018-05-15T14:43:36.457Z,3.40
2018-05-15T14:46:03.119Z,3.60
2018-05-15T14:48:32.502Z,3.27
2018-05-15T14:50:58.929Z,3.77
2018-05-15T14:53:25.347Z,3.30
2018-05-15T14:55:51.832Z,7.30
2018-05-15T14:58:18.287Z,3.50
2018-05-15T15:00:44.692Z,3.23
2018-05-15T15:03:11.088Z,3.20
2018-05-15T15:05:37.579Z,3.27
2018-05-15T15:08:03.961Z,2.60
2018-05-15T15:10:30.332Z,2.60
2018-05-15T15:12:56.693Z,3.10
2018-05-15T15:15:23.183Z,2.90
2018-05-15T15:17:49.581Z,2.87
2018-05-15T15:20:16.649Z,2.70
2018-05-15T15:22:43.108Z,2.90
2018-05-15T15:25:09.515Z,3.40
2018-05-15T15:27:35.979Z,2.67
2018-05-15T15:30:02.400Z,3.37
2018-05-15T15:32:28.735Z,2.57
2018-05-15T15:34:55.071Z,3.00
2018-05-15T15:37:21.694Z,2.80
2018-05-15T15:39:48.070Z,2.60
2018-05-15T15:42:14.479Z,2.73
2018-05-15T15:44:40.898Z,2.47
2018-05-15T15:47:07.403Z,2.87
2018-05-15T15:49:33.834Z,2.37
2018-05-15T15:52:00.178Z,2.73
2018-05-15T15:54:26.543Z,2.40
2018-05-15T15:56:53.083Z,2.63
2018-05-15T15:59:19.424Z,2.70
2018-05-15T16:01:45.790Z,2.70
2018-05-15T16:04:12.184Z,2.50
2018-05-15T16:06:38.702Z,2.83
2018-05-15T16:09:05.080Z,2.30
2018-05-15T16:11:31.580Z,2.40
2018-05-15T16:13:57.936Z,2.10
2018-05-15T16:16:24.343Z,2.80
2018-05-15T16:18:50.785Z,2.40
2018-05-15T16:21:17.279Z,2.50
2018-05-15T16:23:43.643Z,2.10
2018-05-15T16:26:10.075Z,2.30
2018-05-15T16:28:36.730Z,2.20
2018-05-15T16:31:03.120Z,2.50
2018-05-15T16:33:29.568Z,2.57
2018-05-15T16:35:55.899Z,2.40
2018-05-15T16:38:22.381Z,2.33
2018-05-15T16:40:48.824Z,2.63
2018-05-15T16:43:15.216Z,2.50
2018-05-15T16:45:41.545Z,2.47
2018-05-15T16:48:07.995Z,2.67
2018-05-15T16:50:34.362Z,2.40
2018-05-15T16:53:00.725Z,2.47
2018-05-15T16:55:27.057Z,2.30
2018-05-15T16:57:53.423Z,2.73
2018-05-15T17:00:19.850Z,2.30
2018-05-15T17:02:46.204Z,2.60
2018-05-15T17:05:12.525Z,2.10
2018-05-15T17:07:38.880Z,2.57
2018-05-15T17:10:05.211Z,2.50
2018-05-15T17:12:31.685Z,2.60
2018-05-15T17:14:58.103Z,2.53
2018-05-15T17:17:24.475Z,2.27
2018-05-15T17:19:50.872Z,2.80
2018-05-15T17:22:17.244Z,2.40
2018-05-15T17:24:43.575Z,2.50
2018-05-15T17:27:09.916Z,2.50
2018-05-15T17:29:37.013Z,2.50
2018-05-15T17:32:03.650Z,2.60
2018-05-15T17:34:30.040Z,2.70
2018-05-15T17:36:56.366Z,2.57
2018-05-15T17:39:22.747Z,2.20
2018-05-15T17:41:49.115Z,2.20
2018-05-15T17:44:15.445Z,2.40
2018-05-15T17:46:41.813Z,2.43
2018-05-15T17:49:08.170Z,2.43
2018-05-15T17:51:34.556Z,2.20
2018-05-15T17:54:01.021Z,2.77
2018-05-15T17:56:27.339Z,2.60
2018-05-15T17:58:53.720Z,2.60
2018-05-15T18:01:20.071Z,3.07
2018-05-15T18:03:46.504Z,2.37
2018-05-15T18:06:12.862Z,2.60
2018-05-15T18:08:39.241Z,2.23
2018-05-15T18:11:05.588Z,2.13
2018-05-15T18:13:31.970Z,2.30
2018-05-15T18:15:58.328Z,2.70
2018-05-15T18:18:24.744Z,2.43
2018-05-15T18:20:51.104Z,2.43
2018-05-15T18:23:17.490Z,2.90
2018-05-15T18:25:43.879Z,2.40
2018-05-15T18:28:10.268Z,2.40
2018-05-15T18:30:36.662Z,2.50
2018-05-15T18:33:03.111Z,2.37
2018-05-15T18:35:29.337Z,3.00
2018-05-15T18:37:55.704Z,2.90
2018-05-15T18:40:22.040Z,2.43
2018-05-15T18:42:48.595Z,2.20
2018-05-15T18:45:15.008Z,2.53
2018-05-15T18:47:41.339Z,2.23
2018-05-15T18:50:07.839Z,2.50
2018-05-15T18:52:34.201Z,2.23
2018-05-15T18:55:00.537Z,2.53
2018-05-15T18:57:26.864Z,2.63
2018-05-15T18:59:53.219Z,2.37
2018-05-15T19:02:19.653Z,2.47
2018-05-15T19:04:45.990Z,2.53
2018-05-15T19:07:12.360Z,2.73
2018-05-15T19:09:38.721Z,2.50
2018-05-15T19:12:05.105Z,2.10
2018-05-15T19:14:31.444Z,2.20
2018-05-15T19:16:57.789Z,2.40
2018-05-15T19:19:24.168Z,2.10
2018-05-15T19:21:50.448Z,2.30
2018-05-15T19:24:16.899Z,2.17
2018-05-15T19:26:43.321Z,2.33
2018-05-15T19:29:09.707Z,2.50
2018-05-15T19:31:36.107Z,2.40
2018-05-15T19:34:02.449Z,2.20
2018-05-15T19:36:28.781Z,2.40
2018-05-15T19:38:55.165Z,2.13
2018-05-15T19:41:21.532Z,2.20
2018-05-15T19:43:47.926Z,2.20
2018-05-15T19:46:14.265Z,2.60
2018-05-15T19:48:40.611Z,2.17
2018-05-15T19:51:06.958Z,2.37
2018-05-15T19:53:33.359Z,2.10
2018-05-15T19:55:59.684Z,2.20
2018-05-15T19:58:26.045Z,2.33
2018-05-15T20:00:52.414Z,2.30
2018-05-15T20:03:18.842Z,2.33
2018-05-15T20:05:45.205Z,2.00
2018-05-15T20:08:11.517Z,2.43
2018-05-15T20:10:37.888Z,2.60
2018-05-15T20:13:04.205Z,2.50
2018-05-15T20:15:30.560Z,2.30
2018-05-15T20:17:56.878Z,2.40
2018-05-15T20:20:23.204Z,2.40
2018-05-15T20:22:49.538Z,2.33
2018-05-15T20:25:15.873Z,3.13
2018-05-15T20:27:42.267Z,2.30
2018-05-15T20:30:08.592Z,2.20
2018-05-15T20:32:34.914Z,2.10
2018-05-15T20:35:01.412Z,2.50
2018-05-15T20:37:27.620Z,2.30
2018-05-15T20:39:53.985Z,2.60
2018-05-15T20:42:20.301Z,2.30
2018-05-15T20:44:46.624Z,2.40
2018-05-15T20:47:12.980Z,2.20
2018-05-15T20:49:39.295Z,2.57
2018-05-15T20:52:05.721Z,2.30
2018-05-15T20:54:32.056Z,2.10
2018-05-15T20:56:58.378Z,2.30
2018-05-15T20:59:24.699Z,2.37
2018-05-15T21:01:51.126Z,2.10
2018-05-15T21:04:17.441Z,2.50
2018-05-15T21:06:43.760Z,2.40
2018-05-15T21:09:11.112Z,2.30
2018-05-15T21:11:37.432Z,2.30
2018-05-15T21:14:03.772Z,2.13
2018-05-15T21:16:30.103Z,2.40
2018-05-15T21:18:56.466Z,2.07
2018-05-15T21:21:22.788Z,2.10
2018-05-15T21:23:49.114Z,2.40
2018-05-15T21:26:15.460Z,2.40
2018-05-15T21:28:41.814Z,1.97
2018-05-15T21:31:08.176Z,2.17
2018-05-15T21:33:34.552Z,2.63
2018-05-15T21:36:00.878Z,2.03
2018-05-15T21:38:27.199Z,2.47
2018-05-15T21:40:53.583Z,2.20
2018-05-15T21:43:19.976Z,2.57
2018-05-15T21:45:46.344Z,2.20
2018-05-15T21:48:12.664Z,2.00
2018-05-15T21:50:38.987Z,2.17
2018-05-15T21:53:05.351Z,1.90
2018-05-15T21:55:31.671Z,2.67
2018-05-15T21:57:57.984Z,2.20
2018-05-15T22:00:24.352Z,1.90
2018-05-15T22:02:50.673Z,2.20
2018-05-15T22:05:16.996Z,2.10
2018-05-15T22:07:43.309Z,2.37
2018-05-15T22:10:09.661Z,2.27
2018-05-15T22:12:36.008Z,2.10
2018-05-15T22:15:02.348Z,2.00
2018-05-15T22:17:28.723Z,2.57
2018-05-15T22:19:55.099Z,2.10
2018-05-15T22:22:21.484Z,2.20
2018-05-15T22:24:47.821Z,2.30
2018-05-15T22:27:14.140Z,2.20
2018-05-15T22:29:40.463Z,2.20
2018-05-15T22:32:06.803Z,2.40
2018-05-15T22:34:33.153Z,2.13
2018-05-15T22:36:59.527Z,2.10
2018-05-15T22:39:25.925Z,2.00
2018-05-15T22:41:52.246Z,2.23
2018-05-15T22:44:18.599Z,2.17
2018-05-15T22:46:44.920Z,2.03
2018-05-15T22:49:11.273Z,2.20
2018-05-15T22:51:37.646Z,2.20
2018-05-15T22:54:03.966Z,2.10
2018-05-15T22:56:30.321Z,2.20
2018-05-15T22:58:56.642Z,1.80
2018-05-15T23:01:22.956Z,2.07
2018-05-15T23:03:49.285Z,1.90
2018-05-15T23:06:15.608Z,2.40
2018-05-15T23:08:41.943Z,1.90
2018-05-15T23:11:08.262Z,2.10
2018-05-15T23:13:34.611Z,2.20
2018-05-15T23:16:00.931Z,2.13
2018-05-15T23:18:27.256Z,2.03
2018-05-15T23:20:53.573Z,2.23
2018-05-15T23:23:19.892Z,1.90
2018-05-15T23:25:46.219Z,2.20
2018-05-15T23:28:12.560Z,2.20
2018-05-15T23:30:38.922Z,1.90
2018-05-15T23:33:05.250Z,2.47
2018-05-15T23:38:04.085Z,2.00
2018-05-15T23:40:30.450Z,2.20
2018-05-15T23:42:56.777Z,2.23
2018-05-15T23:45:23.104Z,2.10
2018-05-15T23:47:49.429Z,2.03
2018-05-15T23:50:15.745Z,2.20
2018-05-15T23:52:42.088Z,1.80
2018-05-15T23:55:08.406Z,1.83
2018-05-15T23:57:34.729Z,2.23
